sensor_id;sensor_type;location;lat;lon;timestamp;P1;durP1;ratioP1;P2;durP2;ratioP2
63444;SDS011;49573;47.682;9.170;2022-12-07T00:01:19;36.85;;;18.20;;
63444;SDS011;49573;47.682;9.170;2022-12-07T00:04:09;38.85;;;18.45;;
63444;SDS011;49573;47.682;9.170;2022-12-07T00:06:56;39.80;;;19.13;;
63444;SDS011;49573;47.682;9.170;2022-12-07T00:09:42;40.08;;;20.05;;
63444;SDS011;49573;47.682;9.170;2022-12-07T00:12:29;36.67;;;18.92;;
63444;SDS011;49573;47.682;9.170;2022-12-07T00:15:15;34.38;;;17.05;;
63444;SDS011;49573;47.682;9.170;2022-12-07T00:18:02;37.40;;;18.50;;
63444;SDS011;49573;47.682;9.170;2022-12-07T00:20:49;39.38;;;20.38;;
63444;SDS011;49573;47.682;9.170;2022-12-07T00:23:36;37.25;;;18.75;;
63444;SDS011;49573;47.682;9.170;2022-12-07T00:26:23;33.58;;;17.02;;
63444;SDS011;49573;47.682;9.170;2022-12-07T00:31:57;34.15;;;17.42;;
63444;SDS011;49573;47.682;9.170;2022-12-07T00:34:43;35.88;;;17.33;;
63444;SDS011;49573;47.682;9.170;2022-12-07T00:37:31;36.80;;;18.88;;
63444;SDS011;49573;47.682;9.170;2022-12-07T00:40:17;34.17;;;18.25;;
63444;SDS011;49573;47.682;9.170;2022-12-07T00:43:04;36.15;;;18.67;;
63444;SDS011;49573;47.682;9.170;2022-12-07T00:45:50;40.70;;;19.48;;
63444;SDS011;49573;47.682;9.170;2022-12-07T00:48:37;37.30;;;18.58;;
63444;SDS011;49573;47.682;9.170;2022-12-07T00:51:24;35.90;;;17.67;;
63444;SDS011;49573;47.682;9.170;2022-12-07T00:54:12;35.65;;;18.02;;
63444;SDS011;49573;47.682;9.170;2022-12-07T00:56:58;36.35;;;18.27;;
63444;SDS011;49573;47.682;9.170;2022-12-07T00:59:44;34.53;;;17.38;;
63444;SDS011;49573;47.682;9.170;2022-12-07T01:02:31;36.97;;;18.50;;
63444;SDS011;49573;47.682;9.170;2022-12-07T01:05:17;38.00;;;17.83;;
63444;SDS011;49573;47.682;9.170;2022-12-07T01:08:04;37.53;;;18.20;;
63444;SDS011;49573;47.682;9.170;2022-12-07T01:10:58;40.60;;;19.85;;
63444;SDS011;49573;47.682;9.170;2022-12-07T01:13:45;37.88;;;18.75;;
63444;SDS011;49573;47.682;9.170;2022-12-07T01:16:32;40.90;;;18.23;;
63444;SDS011;49573;47.682;9.170;2022-12-07T01:19:18;39.45;;;19.38;;
63444;SDS011;49573;47.682;9.170;2022-12-07T01:22:04;38.35;;;19.70;;
63444;SDS011;49573;47.682;9.170;2022-12-07T01:24:50;36.83;;;18.13;;
63444;SDS011;49573;47.682;9.170;2022-12-07T01:27:38;34.67;;;17.75;;
63444;SDS011;49573;47.682;9.170;2022-12-07T01:30:24;36.47;;;18.38;;
63444;SDS011;49573;47.682;9.170;2022-12-07T01:33:10;35.58;;;18.85;;
63444;SDS011;49573;47.682;9.170;2022-12-07T01:36:00;34.97;;;19.17;;
63444;SDS011;49573;47.682;9.170;2022-12-07T01:38:48;32.92;;;17.90;;
63444;SDS011;49573;47.682;9.170;2022-12-07T01:41:37;34.03;;;17.40;;
63444;SDS011;49573;47.682;9.170;2022-12-07T01:44:27;38.75;;;19.60;;
63444;SDS011;49573;47.682;9.170;2022-12-07T01:47:18;32.58;;;17.20;;
63444;SDS011;49573;47.682;9.170;2022-12-07T01:50:04;35.20;;;17.88;;
63444;SDS011;49573;47.682;9.170;2022-12-07T01:52:50;37.17;;;18.90;;
63444;SDS011;49573;47.682;9.170;2022-12-07T01:55:41;33.83;;;17.33;;
63444;SDS011;49573;47.682;9.170;2022-12-07T01:58:31;38.83;;;18.65;;
63444;SDS011;49573;47.682;9.170;2022-12-07T02:01:18;37.20;;;18.58;;
63444;SDS011;49573;47.682;9.170;2022-12-07T02:04:05;35.05;;;18.80;;
63444;SDS011;49573;47.682;9.170;2022-12-07T02:06:51;38.08;;;18.73;;
63444;SDS011;49573;47.682;9.170;2022-12-07T02:09:38;38.13;;;18.70;;
63444;SDS011;49573;47.682;9.170;2022-12-07T02:12:24;35.27;;;17.57;;
63444;SDS011;49573;47.682;9.170;2022-12-07T02:15:11;41.05;;;19.40;;
63444;SDS011;49573;47.682;9.170;2022-12-07T02:18:00;37.67;;;18.43;;
63444;SDS011;49573;47.682;9.170;2022-12-07T02:20:54;34.55;;;17.27;;
63444;SDS011;49573;47.682;9.170;2022-12-07T02:30:25;34.75;;;18.77;;
63444;SDS011;49573;47.682;9.170;2022-12-07T02:33:14;36.50;;;18.15;;
63444;SDS011;49573;47.682;9.170;2022-12-07T02:36:04;39.05;;;18.80;;
63444;SDS011;49573;47.682;9.170;2022-12-07T02:38:55;34.03;;;17.77;;
63444;SDS011;49573;47.682;9.170;2022-12-07T02:41:46;37.45;;;18.63;;
63444;SDS011;49573;47.682;9.170;2022-12-07T02:44:36;38.00;;;18.20;;
63444;SDS011;49573;47.682;9.170;2022-12-07T02:47:24;37.17;;;17.77;;
63444;SDS011;49573;47.682;9.170;2022-12-07T02:50:11;38.85;;;19.85;;
63444;SDS011;49573;47.682;9.170;2022-12-07T02:52:57;36.83;;;17.48;;
63444;SDS011;49573;47.682;9.170;2022-12-07T02:55:43;37.92;;;17.55;;
63444;SDS011;49573;47.682;9.170;2022-12-07T02:58:32;40.78;;;21.05;;
63444;SDS011;49573;47.682;9.170;2022-12-07T03:01:28;39.10;;;19.33;;
63444;SDS011;49573;47.682;9.170;2022-12-07T03:04:27;38.90;;;19.73;;
63444;SDS011;49573;47.682;9.170;2022-12-07T03:07:21;40.20;;;19.73;;
63444;SDS011;49573;47.682;9.170;2022-12-07T03:10:14;42.20;;;19.52;;
63444;SDS011;49573;47.682;9.170;2022-12-07T03:13:09;38.88;;;19.30;;
63444;SDS011;49573;47.682;9.170;2022-12-07T03:16:04;37.60;;;19.70;;
63444;SDS011;49573;47.682;9.170;2022-12-07T03:18:59;37.00;;;19.02;;
63444;SDS011;49573;47.682;9.170;2022-12-07T03:21:51;42.42;;;20.45;;
63444;SDS011;49573;47.682;9.170;2022-12-07T03:24:43;41.25;;;20.05;;
63444;SDS011;49573;47.682;9.170;2022-12-07T03:27:32;37.58;;;19.15;;
63444;SDS011;49573;47.682;9.170;2022-12-07T03:30:22;36.38;;;19.35;;
63444;SDS011;49573;47.682;9.170;2022-12-07T03:33:14;40.88;;;20.15;;
63444;SDS011;49573;47.682;9.170;2022-12-07T03:36:06;39.60;;;19.45;;
63444;SDS011;49573;47.682;9.170;2022-12-07T03:39:03;40.97;;;19.90;;
63444;SDS011;49573;47.682;9.170;2022-12-07T03:41:52;36.92;;;19.73;;
63444;SDS011;49573;47.682;9.170;2022-12-07T03:44:40;36.60;;;19.48;;
63444;SDS011;49573;47.682;9.170;2022-12-07T03:47:28;33.92;;;18.23;;
63444;SDS011;49573;47.682;9.170;2022-12-07T03:50:21;39.83;;;19.13;;
63444;SDS011;49573;47.682;9.170;2022-12-07T03:53:11;40.15;;;19.45;;
63444;SDS011;49573;47.682;9.170;2022-12-07T03:56:02;36.22;;;18.17;;
63444;SDS011;49573;47.682;9.170;2022-12-07T03:58:48;36.75;;;18.92;;
63444;SDS011;49573;47.682;9.170;2022-12-07T04:01:35;37.50;;;18.33;;
63444;SDS011;49573;47.682;9.170;2022-12-07T04:04:21;37.53;;;19.10;;
63444;SDS011;49573;47.682;9.170;2022-12-07T04:07:07;37.25;;;18.35;;
63444;SDS011;49573;47.682;9.170;2022-12-07T04:09:53;38.72;;;18.85;;
63444;SDS011;49573;47.682;9.170;2022-12-07T04:12:44;35.88;;;18.17;;
63444;SDS011;49573;47.682;9.170;2022-12-07T04:15:30;37.97;;;18.90;;
63444;SDS011;49573;47.682;9.170;2022-12-07T04:18:16;37.30;;;18.40;;
63444;SDS011;49573;47.682;9.170;2022-12-07T04:21:02;41.08;;;18.25;;
63444;SDS011;49573;47.682;9.170;2022-12-07T04:23:48;35.03;;;18.27;;
63444;SDS011;49573;47.682;9.170;2022-12-07T04:26:34;41.13;;;18.65;;
63444;SDS011;49573;47.682;9.170;2022-12-07T04:29:22;35.50;;;17.75;;
63444;SDS011;49573;47.682;9.170;2022-12-07T04:32:09;38.08;;;17.77;;
63444;SDS011;49573;47.682;9.170;2022-12-07T04:34:55;40.03;;;19.40;;
63444;SDS011;49573;47.682;9.170;2022-12-07T04:37:41;37.85;;;18.45;;
63444;SDS011;49573;47.682;9.170;2022-12-07T04:40:27;39.15;;;18.05;;
63444;SDS011;49573;47.682;9.170;2022-12-07T04:43:13;37.88;;;18.65;;
63444;SDS011;49573;47.682;9.170;2022-12-07T04:46:00;39.22;;;19.25;;
63444;SDS011;49573;47.682;9.170;2022-12-07T04:48:48;41.15;;;19.35;;
63444;SDS011;49573;47.682;9.170;2022-12-07T04:51:36;41.10;;;20.58;;
63444;SDS011;49573;47.682;9.170;2022-12-07T04:54:22;40.58;;;19.55;;
63444;SDS011;49573;47.682;9.170;2022-12-07T04:57:08;40.65;;;18.48;;
63444;SDS011;49573;47.682;9.170;2022-12-07T04:59:55;41.67;;;20.45;;
63444;SDS011;49573;47.682;9.170;2022-12-07T05:02:42;39.30;;;19.23;;
63444;SDS011;49573;47.682;9.170;2022-12-07T05:05:28;42.22;;;20.73;;
63444;SDS011;49573;47.682;9.170;2022-12-07T05:08:14;40.75;;;19.40;;
63444;SDS011;49573;47.682;9.170;2022-12-07T05:11:00;47.50;;;21.85;;
63444;SDS011;49573;47.682;9.170;2022-12-07T05:13:47;42.38;;;20.48;;
63444;SDS011;49573;47.682;9.170;2022-12-07T05:16:33;48.55;;;22.40;;
63444;SDS011;49573;47.682;9.170;2022-12-07T05:19:21;44.83;;;20.52;;
63444;SDS011;49573;47.682;9.170;2022-12-07T05:22:07;49.30;;;21.50;;
63444;SDS011;49573;47.682;9.170;2022-12-07T05:24:53;45.00;;;20.40;;
63444;SDS011;49573;47.682;9.170;2022-12-07T05:27:39;42.05;;;20.38;;
63444;SDS011;49573;47.682;9.170;2022-12-07T05:30:25;48.70;;;21.73;;
63444;SDS011;49573;47.682;9.170;2022-12-07T05:33:12;47.15;;;21.67;;
63444;SDS011;49573;47.682;9.170;2022-12-07T05:35:59;47.10;;;22.80;;
63444;SDS011;49573;47.682;9.170;2022-12-07T05:38:50;46.60;;;21.42;;
63444;SDS011;49573;47.682;9.170;2022-12-07T05:41:36;45.78;;;20.38;;
63444;SDS011;49573;47.682;9.170;2022-12-07T05:44:42;47.55;;;21.48;;
63444;SDS011;49573;47.682;9.170;2022-12-07T05:47:29;52.33;;;22.23;;
63444;SDS011;49573;47.682;9.170;2022-12-07T05:50:15;43.85;;;19.92;;
63444;SDS011;49573;47.682;9.170;2022-12-07T05:53:02;38.78;;;18.45;;
63444;SDS011;49573;47.682;9.170;2022-12-07T05:55:48;48.97;;;19.95;;
63444;SDS011;49573;47.682;9.170;2022-12-07T05:58:34;40.33;;;20.40;;
63444;SDS011;49573;47.682;9.170;2022-12-07T06:01:39;42.13;;;19.80;;
63444;SDS011;49573;47.682;9.170;2022-12-07T06:04:26;39.30;;;18.57;;
63444;SDS011;49573;47.682;9.170;2022-12-07T06:07:14;42.85;;;20.35;;
63444;SDS011;49573;47.682;9.170;2022-12-07T06:10:02;45.97;;;20.23;;
63444;SDS011;49573;47.682;9.170;2022-12-07T06:12:49;40.13;;;18.45;;
63444;SDS011;49573;47.682;9.170;2022-12-07T06:15:35;42.63;;;20.35;;
63444;SDS011;49573;47.682;9.170;2022-12-07T06:18:21;39.25;;;20.08;;
63444;SDS011;49573;47.682;9.170;2022-12-07T06:21:07;40.20;;;19.40;;
63444;SDS011;49573;47.682;9.170;2022-12-07T06:23:53;42.97;;;19.52;;
63444;SDS011;49573;47.682;9.170;2022-12-07T06:26:41;39.27;;;18.17;;
63444;SDS011;49573;47.682;9.170;2022-12-07T06:29:27;43.47;;;20.35;;
63444;SDS011;49573;47.682;9.170;2022-12-07T06:32:13;42.15;;;19.88;;
63444;SDS011;49573;47.682;9.170;2022-12-07T06:34:59;40.92;;;19.38;;
63444;SDS011;49573;47.682;9.170;2022-12-07T06:37:46;46.78;;;20.95;;
63444;SDS011;49573;47.682;9.170;2022-12-07T06:40:32;43.80;;;20.75;;
63444;SDS011;49573;47.682;9.170;2022-12-07T06:43:19;43.28;;;19.13;;
63444;SDS011;49573;47.682;9.170;2022-12-07T06:46:05;43.22;;;20.42;;
63444;SDS011;49573;47.682;9.170;2022-12-07T06:48:51;49.42;;;20.92;;
63444;SDS011;49573;47.682;9.170;2022-12-07T06:51:38;37.92;;;18.90;;
63444;SDS011;49573;47.682;9.170;2022-12-07T06:54:26;45.45;;;18.92;;
63444;SDS011;49573;47.682;9.170;2022-12-07T06:57:12;48.87;;;21.53;;
63444;SDS011;49573;47.682;9.170;2022-12-07T07:00:00;47.10;;;20.42;;
63444;SDS011;49573;47.682;9.170;2022-12-07T07:02:46;43.90;;;18.95;;
63444;SDS011;49573;47.682;9.170;2022-12-07T07:05:32;39.45;;;19.45;;
63444;SDS011;49573;47.682;9.170;2022-12-07T07:08:18;49.42;;;21.38;;
63444;SDS011;49573;47.682;9.170;2022-12-07T07:11:05;49.13;;;20.67;;
63444;SDS011;49573;47.682;9.170;2022-12-07T07:13:52;41.40;;;19.27;;
63444;SDS011;49573;47.682;9.170;2022-12-07T07:16:40;44.10;;;19.10;;
63444;SDS011;49573;47.682;9.170;2022-12-07T07:19:26;43.90;;;20.88;;
63444;SDS011;49573;47.682;9.170;2022-12-07T07:22:12;41.25;;;19.48;;
63444;SDS011;49573;47.682;9.170;2022-12-07T07:24:58;42.40;;;19.80;;
63444;SDS011;49573;47.682;9.170;2022-12-07T07:27:44;40.90;;;18.60;;
63444;SDS011;49573;47.682;9.170;2022-12-07T07:30:30;41.42;;;20.98;;
63444;SDS011;49573;47.682;9.170;2022-12-07T07:33:18;41.43;;;19.87;;
63444;SDS011;49573;47.682;9.170;2022-12-07T07:36:04;46.78;;;19.98;;
63444;SDS011;49573;47.682;9.170;2022-12-07T07:38:51;41.13;;;19.10;;
63444;SDS011;49573;47.682;9.170;2022-12-07T07:41:38;43.25;;;19.70;;
63444;SDS011;49573;47.682;9.170;2022-12-07T07:44:24;48.00;;;21.42;;
63444;SDS011;49573;47.682;9.170;2022-12-07T07:47:10;45.97;;;21.58;;
63444;SDS011;49573;47.682;9.170;2022-12-07T07:49:57;48.50;;;21.50;;
63444;SDS011;49573;47.682;9.170;2022-12-07T07:52:43;42.08;;;19.90;;
63444;SDS011;49573;47.682;9.170;2022-12-07T07:55:29;40.17;;;18.52;;
63444;SDS011;49573;47.682;9.170;2022-12-07T07:58:16;39.20;;;18.77;;
63444;SDS011;49573;47.682;9.170;2022-12-07T08:01:05;43.47;;;19.58;;
63444;SDS011;49573;47.682;9.170;2022-12-07T08:03:51;42.83;;;20.33;;
63444;SDS011;49573;47.682;9.170;2022-12-07T08:06:39;40.33;;;19.27;;
63444;SDS011;49573;47.682;9.170;2022-12-07T08:09:27;39.83;;;19.52;;
63444;SDS011;49573;47.682;9.170;2022-12-07T08:12:13;38.30;;;19.08;;
63444;SDS011;49573;47.682;9.170;2022-12-07T08:14:59;40.92;;;21.27;;
63444;SDS011;49573;47.682;9.170;2022-12-07T08:17:45;41.30;;;19.25;;
63444;SDS011;49573;47.682;9.170;2022-12-07T08:20:32;38.05;;;18.75;;
63444;SDS011;49573;47.682;9.170;2022-12-07T08:23:20;40.22;;;19.67;;
63444;SDS011;49573;47.682;9.170;2022-12-07T08:26:07;36.95;;;18.73;;
63444;SDS011;49573;47.682;9.170;2022-12-07T08:28:55;37.28;;;18.73;;
63444;SDS011;49573;47.682;9.170;2022-12-07T08:31:41;36.90;;;18.55;;
63444;SDS011;49573;47.682;9.170;2022-12-07T08:34:27;37.55;;;18.50;;
63444;SDS011;49573;47.682;9.170;2022-12-07T08:37:13;37.58;;;18.13;;
63444;SDS011;49573;47.682;9.170;2022-12-07T08:40:01;42.95;;;18.48;;
63444;SDS011;49573;47.682;9.170;2022-12-07T08:42:50;38.33;;;18.30;;
63444;SDS011;49573;47.682;9.170;2022-12-07T08:45:36;36.78;;;19.15;;
63444;SDS011;49573;47.682;9.170;2022-12-07T08:48:26;39.00;;;18.35;;
63444;SDS011;49573;47.682;9.170;2022-12-07T08:51:12;37.35;;;18.05;;
63444;SDS011;49573;47.682;9.170;2022-12-07T08:53:58;32.35;;;16.83;;
63444;SDS011;49573;47.682;9.170;2022-12-07T08:56:48;34.63;;;17.15;;
63444;SDS011;49573;47.682;9.170;2022-12-07T08:59:37;35.15;;;17.85;;
63444;SDS011;49573;47.682;9.170;2022-12-07T09:02:23;37.83;;;19.60;;
63444;SDS011;49573;47.682;9.170;2022-12-07T09:05:10;37.67;;;17.33;;
63444;SDS011;49573;47.682;9.170;2022-12-07T09:07:56;40.10;;;20.83;;
63444;SDS011;49573;47.682;9.170;2022-12-07T09:10:45;36.70;;;17.65;;
63444;SDS011;49573;47.682;9.170;2022-12-07T09:13:32;36.53;;;18.98;;
63444;SDS011;49573;47.682;9.170;2022-12-07T09:16:19;39.67;;;19.13;;
63444;SDS011;49573;47.682;9.170;2022-12-07T09:19:05;35.90;;;18.63;;
63444;SDS011;49573;47.682;9.170;2022-12-07T09:21:51;41.17;;;19.48;;
63444;SDS011;49573;47.682;9.170;2022-12-07T09:24:37;47.15;;;24.67;;
63444;SDS011;49573;47.682;9.170;2022-12-07T09:27:23;39.97;;;20.27;;
63444;SDS011;49573;47.682;9.170;2022-12-07T09:30:11;36.95;;;18.60;;
63444;SDS011;49573;47.682;9.170;2022-12-07T09:32:57;31.95;;;16.88;;
63444;SDS011;49573;47.682;9.170;2022-12-07T09:35:44;32.17;;;16.92;;
63444;SDS011;49573;47.682;9.170;2022-12-07T09:38:30;32.60;;;17.20;;
63444;SDS011;49573;47.682;9.170;2022-12-07T09:41:18;35.15;;;17.55;;
63444;SDS011;49573;47.682;9.170;2022-12-07T09:44:05;33.30;;;16.55;;
63444;SDS011;49573;47.682;9.170;2022-12-07T09:46:54;27.98;;;15.27;;
63444;SDS011;49573;47.682;9.170;2022-12-07T09:49:41;31.13;;;16.13;;
63444;SDS011;49573;47.682;9.170;2022-12-07T09:52:28;34.77;;;17.20;;
63444;SDS011;49573;47.682;9.170;2022-12-07T09:55:16;27.52;;;14.02;;
63444;SDS011;49573;47.682;9.170;2022-12-07T09:58:05;29.52;;;14.85;;
63444;SDS011;49573;47.682;9.170;2022-12-07T10:00:52;31.75;;;16.20;;
63444;SDS011;49573;47.682;9.170;2022-12-07T10:03:42;29.85;;;16.02;;
63444;SDS011;49573;47.682;9.170;2022-12-07T10:06:33;26.65;;;14.65;;
63444;SDS011;49573;47.682;9.170;2022-12-07T10:09:20;27.58;;;14.10;;
63444;SDS011;49573;47.682;9.170;2022-12-07T10:12:07;23.75;;;13.30;;
63444;SDS011;49573;47.682;9.170;2022-12-07T10:14:56;27.52;;;14.20;;
63444;SDS011;49573;47.682;9.170;2022-12-07T10:17:47;31.70;;;14.88;;
63444;SDS011;49573;47.682;9.170;2022-12-07T10:20:36;27.23;;;14.07;;
63444;SDS011;49573;47.682;9.170;2022-12-07T10:23:22;29.33;;;14.73;;
63444;SDS011;49573;47.682;9.170;2022-12-07T10:26:28;31.17;;;15.00;;
63444;SDS011;49573;47.682;9.170;2022-12-07T10:32:05;28.98;;;14.57;;
63444;SDS011;49573;47.682;9.170;2022-12-07T10:35:21;24.90;;;13.85;;
63444;SDS011;49573;47.682;9.170;2022-12-07T10:38:15;32.72;;;15.55;;
63444;SDS011;49573;47.682;9.170;2022-12-07T10:41:03;34.53;;;16.80;;
63444;SDS011;49573;47.682;9.170;2022-12-07T10:43:51;28.33;;;14.63;;
63444;SDS011;49573;47.682;9.170;2022-12-07T10:50:07;27.27;;;13.48;;
63444;SDS011;49573;47.682;9.170;2022-12-07T10:53:16;26.42;;;13.80;;
63444;SDS011;49573;47.682;9.170;2022-12-07T10:56:33;25.25;;;13.07;;
63444;SDS011;49573;47.682;9.170;2022-12-07T10:59:42;23.15;;;12.38;;
63444;SDS011;49573;47.682;9.170;2022-12-07T11:02:50;20.45;;;10.80;;
63444;SDS011;49573;47.682;9.170;2022-12-07T11:05:49;18.90;;;10.05;;
63444;SDS011;49573;47.682;9.170;2022-12-07T11:08:47;19.15;;;10.10;;
63444;SDS011;49573;47.682;9.170;2022-12-07T11:11:44;18.50;;;10.40;;
63444;SDS011;49573;47.682;9.170;2022-12-07T11:14:37;17.92;;;9.00;;
63444;SDS011;49573;47.682;9.170;2022-12-07T11:17:32;15.60;;;9.50;;
63444;SDS011;49573;47.682;9.170;2022-12-07T11:20:29;22.27;;;11.70;;
63444;SDS011;49573;47.682;9.170;2022-12-07T11:23:25;23.10;;;11.82;;
63444;SDS011;49573;47.682;9.170;2022-12-07T11:26:25;22.77;;;11.93;;
63444;SDS011;49573;47.682;9.170;2022-12-07T11:29:32;24.05;;;12.85;;
63444;SDS011;49573;47.682;9.170;2022-12-07T11:32:38;18.02;;;10.10;;
63444;SDS011;49573;47.682;9.170;2022-12-07T11:35:42;16.88;;;9.40;;
63444;SDS011;49573;47.682;9.170;2022-12-07T11:38:42;17.15;;;9.05;;
63444;SDS011;49573;47.682;9.170;2022-12-07T11:41:33;16.17;;;9.57;;
63444;SDS011;49573;47.682;9.170;2022-12-07T11:44:25;17.42;;;9.93;;
63444;SDS011;49573;47.682;9.170;2022-12-07T11:47:18;18.95;;;10.27;;
63444;SDS011;49573;47.682;9.170;2022-12-07T11:50:13;18.70;;;10.70;;
63444;SDS011;49573;47.682;9.170;2022-12-07T11:53:14;19.08;;;10.13;;
63444;SDS011;49573;47.682;9.170;2022-12-07T11:56:06;20.70;;;10.48;;
63444;SDS011;49573;47.682;9.170;2022-12-07T11:58:59;21.02;;;11.43;;
63444;SDS011;49573;47.682;9.170;2022-12-07T12:01:51;17.67;;;10.73;;
63444;SDS011;49573;47.682;9.170;2022-12-07T12:04:45;19.00;;;10.35;;
63444;SDS011;49573;47.682;9.170;2022-12-07T12:07:36;18.02;;;10.05;;
63444;SDS011;49573;47.682;9.170;2022-12-07T12:10:24;19.52;;;10.05;;
63444;SDS011;49573;47.682;9.170;2022-12-07T12:13:20;17.50;;;9.68;;
63444;SDS011;49573;47.682;9.170;2022-12-07T12:16:27;17.88;;;9.75;;
63444;SDS011;49573;47.682;9.170;2022-12-07T12:19:40;17.58;;;9.82;;
63444;SDS011;49573;47.682;9.170;2022-12-07T12:22:32;15.20;;;9.55;;
63444;SDS011;49573;47.682;9.170;2022-12-07T12:25:23;15.60;;;9.27;;
63444;SDS011;49573;47.682;9.170;2022-12-07T12:28:20;18.23;;;9.40;;
63444;SDS011;49573;47.682;9.170;2022-12-07T12:31:13;17.63;;;9.52;;
63444;SDS011;49573;47.682;9.170;2022-12-07T12:34:10;16.50;;;9.48;;
63444;SDS011;49573;47.682;9.170;2022-12-07T12:40:45;15.10;;;8.57;;
63444;SDS011;49573;47.682;9.170;2022-12-07T12:43:41;14.43;;;7.63;;
63444;SDS011;49573;47.682;9.170;2022-12-07T12:49:38;15.20;;;8.60;;
63444;SDS011;49573;47.682;9.170;2022-12-07T12:55:49;13.45;;;7.47;;
63444;SDS011;49573;47.682;9.170;2022-12-07T13:02:15;14.20;;;6.82;;
63444;SDS011;49573;47.682;9.170;2022-12-07T13:05:16;11.20;;;7.00;;
63444;SDS011;49573;47.682;9.170;2022-12-07T13:08:05;10.50;;;6.85;;
63444;SDS011;49573;47.682;9.170;2022-12-07T13:11:15;9.77;;;6.00;;
63444;SDS011;49573;47.682;9.170;2022-12-07T13:20:48;10.85;;;6.00;;
63444;SDS011;49573;47.682;9.170;2022-12-07T13:23:36;10.85;;;6.85;;
63444;SDS011;49573;47.682;9.170;2022-12-07T13:26:23;11.00;;;6.72;;
63444;SDS011;49573;47.682;9.170;2022-12-07T13:29:20;10.38;;;6.22;;
63444;SDS011;49573;47.682;9.170;2022-12-07T13:32:17;8.27;;;5.70;;
63444;SDS011;49573;47.682;9.170;2022-12-07T13:38:22;10.93;;;6.72;;
63444;SDS011;49573;47.682;9.170;2022-12-07T13:44:00;10.60;;;6.38;;
63444;SDS011;49573;47.682;9.170;2022-12-07T13:46:49;11.07;;;6.75;;
63444;SDS011;49573;47.682;9.170;2022-12-07T13:49:46;12.30;;;6.57;;
63444;SDS011;49573;47.682;9.170;2022-12-07T13:52:33;9.10;;;5.88;;
63444;SDS011;49573;47.682;9.170;2022-12-07T13:55:31;11.60;;;6.70;;
63444;SDS011;49573;47.682;9.170;2022-12-07T13:58:17;11.93;;;6.90;;
63444;SDS011;49573;47.682;9.170;2022-12-07T14:01:04;10.00;;;6.33;;
63444;SDS011;49573;47.682;9.170;2022-12-07T14:06:37;12.93;;;7.63;;
63444;SDS011;49573;47.682;9.170;2022-12-07T14:09:34;12.95;;;7.82;;
63444;SDS011;49573;47.682;9.170;2022-12-07T14:12:21;13.35;;;8.00;;
63444;SDS011;49573;47.682;9.170;2022-12-07T14:15:15;16.02;;;9.35;;
63444;SDS011;49573;47.682;9.170;2022-12-07T14:21:14;13.85;;;8.20;;
63444;SDS011;49573;47.682;9.170;2022-12-07T14:24:09;13.52;;;8.23;;
63444;SDS011;49573;47.682;9.170;2022-12-07T14:27:03;15.18;;;8.38;;
63444;SDS011;49573;47.682;9.170;2022-12-07T14:30:05;14.68;;;7.88;;
63444;SDS011;49573;47.682;9.170;2022-12-07T14:35:47;25.23;;;12.25;;
63444;SDS011;49573;47.682;9.170;2022-12-07T14:38:34;19.00;;;10.75;;
63444;SDS011;49573;47.682;9.170;2022-12-07T14:41:20;13.25;;;7.43;;
63444;SDS011;49573;47.682;9.170;2022-12-07T14:44:26;19.20;;;9.05;;
63444;SDS011;49573;47.682;9.170;2022-12-07T14:47:14;30.58;;;13.68;;
63444;SDS011;49573;47.682;9.170;2022-12-07T14:50:00;15.65;;;9.30;;
63444;SDS011;49573;47.682;9.170;2022-12-07T14:52:47;17.70;;;9.40;;
63444;SDS011;49573;47.682;9.170;2022-12-07T14:55:36;22.17;;;11.38;;
63444;SDS011;49573;47.682;9.170;2022-12-07T14:58:22;15.02;;;9.05;;
63444;SDS011;49573;47.682;9.170;2022-12-07T15:01:08;15.10;;;8.90;;
63444;SDS011;49573;47.682;9.170;2022-12-07T15:03:56;25.10;;;13.23;;
63444;SDS011;49573;47.682;9.170;2022-12-07T15:06:48;16.83;;;9.75;;
63444;SDS011;49573;47.682;9.170;2022-12-07T15:09:40;16.23;;;9.32;;
63444;SDS011;49573;47.682;9.170;2022-12-07T15:12:26;14.70;;;8.82;;
63444;SDS011;49573;47.682;9.170;2022-12-07T15:15:12;14.90;;;8.32;;
63444;SDS011;49573;47.682;9.170;2022-12-07T15:17:59;14.38;;;8.40;;
63444;SDS011;49573;47.682;9.170;2022-12-07T15:20:46;13.98;;;8.27;;
63444;SDS011;49573;47.682;9.170;2022-12-07T15:23:33;16.33;;;9.68;;
63444;SDS011;49573;47.682;9.170;2022-12-07T15:26:19;17.45;;;9.60;;
63444;SDS011;49573;47.682;9.170;2022-12-07T15:29:05;22.45;;;12.40;;
63444;SDS011;49573;47.682;9.170;2022-12-07T15:31:52;21.65;;;13.13;;
63444;SDS011;49573;47.682;9.170;2022-12-07T15:34:39;25.17;;;14.13;;
63444;SDS011;49573;47.682;9.170;2022-12-07T15:37:26;25.35;;;14.07;;
63444;SDS011;49573;47.682;9.170;2022-12-07T15:40:13;24.73;;;13.45;;
63444;SDS011;49573;47.682;9.170;2022-12-07T15:42:59;24.13;;;12.88;;
63444;SDS011;49573;47.682;9.170;2022-12-07T15:45:49;24.90;;;13.63;;
63444;SDS011;49573;47.682;9.170;2022-12-07T15:48:35;26.92;;;13.77;;
63444;SDS011;49573;47.682;9.170;2022-12-07T15:51:21;26.83;;;14.60;;
63444;SDS011;49573;47.682;9.170;2022-12-07T15:54:09;26.25;;;13.98;;
63444;SDS011;49573;47.682;9.170;2022-12-07T15:56:58;26.80;;;14.18;;
63444;SDS011;49573;47.682;9.170;2022-12-07T15:59:44;28.95;;;15.00;;
63444;SDS011;49573;47.682;9.170;2022-12-07T16:02:30;31.30;;;16.23;;
63444;SDS011;49573;47.682;9.170;2022-12-07T16:05:17;33.33;;;15.73;;
63444;SDS011;49573;47.682;9.170;2022-12-07T16:08:03;30.23;;;15.98;;
63444;SDS011;49573;47.682;9.170;2022-12-07T16:10:51;32.17;;;16.27;;
63444;SDS011;49573;47.682;9.170;2022-12-07T16:13:37;27.02;;;14.38;;
63444;SDS011;49573;47.682;9.170;2022-12-07T16:16:24;23.92;;;13.82;;
63444;SDS011;49573;47.682;9.170;2022-12-07T16:19:11;23.80;;;13.52;;
63444;SDS011;49573;47.682;9.170;2022-12-07T16:21:57;25.20;;;13.23;;
63444;SDS011;49573;47.682;9.170;2022-12-07T16:24:43;25.20;;;13.90;;
63444;SDS011;49573;47.682;9.170;2022-12-07T16:27:31;27.38;;;13.63;;
63444;SDS011;49573;47.682;9.170;2022-12-07T16:30:17;25.45;;;14.95;;
63444;SDS011;49573;47.682;9.170;2022-12-07T16:33:03;27.98;;;15.18;;
63444;SDS011;49573;47.682;9.170;2022-12-07T16:35:49;45.50;;;21.27;;
63444;SDS011;49573;47.682;9.170;2022-12-07T16:38:36;28.38;;;15.88;;
63444;SDS011;49573;47.682;9.170;2022-12-07T16:41:22;32.63;;;15.30;;
63444;SDS011;49573;47.682;9.170;2022-12-07T16:44:11;26.15;;;15.35;;
63444;SDS011;49573;47.682;9.170;2022-12-07T16:46:58;27.48;;;15.15;;
63444;SDS011;49573;47.682;9.170;2022-12-07T16:52:31;26.67;;;13.95;;
63444;SDS011;49573;47.682;9.170;2022-12-07T16:55:17;26.05;;;13.80;;
63444;SDS011;49573;47.682;9.170;2022-12-07T16:58:04;25.40;;;13.38;;
63444;SDS011;49573;47.682;9.170;2022-12-07T17:00:52;23.25;;;13.70;;
63444;SDS011;49573;47.682;9.170;2022-12-07T17:03:38;25.92;;;13.02;;
63444;SDS011;49573;47.682;9.170;2022-12-07T17:06:25;26.20;;;13.23;;
63444;SDS011;49573;47.682;9.170;2022-12-07T17:09:13;17.38;;;10.32;;
63444;SDS011;49573;47.682;9.170;2022-12-07T17:11:59;21.07;;;11.53;;
63444;SDS011;49573;47.682;9.170;2022-12-07T17:14:45;20.17;;;10.85;;
63444;SDS011;49573;47.682;9.170;2022-12-07T17:17:53;23.45;;;11.52;;
63444;SDS011;49573;47.682;9.170;2022-12-07T17:20:40;24.23;;;12.20;;
63444;SDS011;49573;47.682;9.170;2022-12-07T17:23:26;18.10;;;10.70;;
63444;SDS011;49573;47.682;9.170;2022-12-07T17:26:13;23.25;;;11.02;;